Elihu, Kentucky
Current Conditions -  °F | °C
As of 10:35 AM on Saturday 22 Nov 2014 (Local Time) from KSME Reporting Station
Clear Clear  
Wind Chill: 52°   Ceiling: Unl
Heat Index: 52°   Visibility: 10mi
Dew Point: 27°   Wind: 10mph
Humidity: 38%   Direction: 210°SSW
Pressure: 30.37"   Gusts: 17mph
Location:  37.0813°N, 84.4741°W
Report Text: KSME 221535Z AUTO 21009G15KT 10SM CLR 11/M03 A3037 RMK AO2
Loading
Personal Weather Stations






























Interactive Weather Map New forecast layout! Learn more

10-Day Weather Forecast

Advertisements
Track Severe Weather on mobile